Shacklefords, Virginia
Current Conditions -  °F | °C
As of 2:15 AM on Thursday 23 Oct 2014 (Local Time) from KFYJ Reporting Station
Overcast Overcast  
Wind Chill: 55°   Ceiling: 5000
Heat Index: 55°   Visibility: 10mi
Dew Point: 42°   Wind: 12mph
Humidity: 61%   Direction: 300°WNW
Pressure: 29.91"   Gusts: 16mph
Location:  37.55°N, 76.73°W
Report Text: KFYJ 230615Z AUTO 30010G14KT 10SM OVC050 13/06 A2991 RMK AO2 T01300057
Loading
Personal Weather Stations






























Interactive Weather Map
Tropical Storm Tracking
New forecast layout! Learn more

10-Day Weather Forecast

Advertisements
Track Severe Weather on mobile